Scott, Indiana
Current Conditions -  °F | °C
As of 11:55 AM on Sunday 25 Jan 2015 (Local Time) from KANQ Reporting Station
Overcast Overcast  
Wind Chill: -8°   Ceiling: 1200
Heat Index: -2°   Visibility: 2.5mi
Dew Point: -3°   Wind: 15mph
Humidity: 93%   Direction: 100°E
Pressure: 29.8"   Gusts: NA
Location:  41.6594°N, 85.0055°W
Report Text: KANQ 251655Z AUTO 10013KT 2 1/2SM OVC012 M02/M03 A2980 RMK
Loading
Personal Weather Stations






























Interactive Weather Map New forecast layout! Learn more

10-Day Weather Forecast

Advertisements
Track Severe Weather on mobile